Time;durP1;ratioP1;P1;durP2;ratioP2;P2;SDS_P1;SDS_P2;PMS_P1;PMS_P2;Temp;Humidity;BMP_temperature;BMP_pressure;BME280_temperature;BME280_humidity;BME280_pressure;Samples;Min_cycle;Max_cycle;Signal;HPM_P1;HPM_P2
2021/05/08 00:01:45;;;;;;;4.72;1.40;;;21.80;87.60;;;;;;4954024;28;20091;-56
2021/05/08 00:04:13;;;;;;;2.13;1.33;;;22.00;86.80;;;;;;4954058;29;20031;-59
2021/05/08 00:06:40;;;;;;;3.88;1.98;;;22.00;85.80;;;;;;4937029;29;20342;-53
2021/05/08 00:09:08;;;;;;;2.53;1.50;;;22.00;86.50;;;;;;4952593;28;20027;-52
2021/05/08 00:11:36;;;;;;;2.60;1.42;;;22.10;86.80;;;;;;4953892;29;20027;-55
2021/05/08 00:14:05;;;;;;;10.38;1.63;;;22.10;86.30;;;;;;4953879;29;20043;-56
2021/05/08 00:16:32;;;;;;;2.22;1.42;;;22.30;86.20;;;;;;4953830;29;20023;-49
2021/05/08 00:19:00;;;;;;;2.53;1.20;;;22.30;85.20;;;;;;4953461;29;20110;-53
2021/05/08 00:21:28;;;;;;;2.47;1.42;;;22.30;85.70;;;;;;4954008;29;20027;-54
2021/05/08 00:23:55;;;;;;;3.13;1.48;;;22.40;84.80;;;;;;4953907;29;20054;-55
2021/05/08 00:26:23;;;;;;;2.20;1.17;;;22.50;84.00;;;;;;4953882;29;20030;-59
2021/05/08 00:28:52;;;;;;;7.88;1.50;;;22.50;85.50;;;;;;4953622;29;20043;-61
2021/05/08 00:31:19;;;;;;;3.78;1.50;;;22.60;84.60;;;;;;4953319;29;20058;-60
2021/05/08 00:33:47;;;;;;;4.28;1.73;;;22.80;83.60;;;;;;4953305;29;20043;-55
2021/05/08 00:36:14;;;;;;;3.15;1.60;;;22.80;82.20;;;;;;4936671;29;20031;-54
2021/05/08 00:38:42;;;;;;;1.33;1.02;;;22.90;84.00;;;;;;4953728;29;20027;-60
2021/05/08 00:41:09;;;;;;;1.77;1.35;;;22.80;84.90;;;;;;4953291;29;20035;-56
2021/05/08 00:43:36;;;;;;;3.35;1.30;;;22.80;83.50;;;;;;4953737;29;20027;-58
2021/05/08 00:46:04;;;;;;;3.28;1.60;;;23.00;83.90;;;;;;4953594;28;20115;-59
2021/05/08 00:48:33;;;;;;;3.35;1.15;;;22.90;83.30;;;;;;4953049;29;20429;-56
2021/05/08 00:51:00;;;;;;;2.10;1.30;;;23.20;81.20;;;;;;4953085;29;20031;-56
2021/05/08 00:53:28;;;;;;;2.20;1.20;;;23.20;82.40;;;;;;4953430;29;20061;-61
2021/05/08 00:55:55;;;;;;;6.55;2.13;;;23.40;81.10;;;;;;4953314;29;20532;-53
2021/05/08 00:58:23;;;;;;;5.55;1.02;;;23.40;81.20;;;;;;4953627;29;20043;-56
2021/05/08 01:00:55;;;;;;;2.38;1.50;;;23.50;80.80;;;;;;4953398;29;20020;-60
2021/05/08 01:03:23;;;;;;;3.33;1.80;;;23.50;81.30;;;;;;4952972;28;20133;-61
2021/05/08 01:05:50;;;;;;;3.13;1.15;;;23.30;82.40;;;;;;4956468;28;20027;-59
2021/05/08 01:08:18;;;;;;;3.05;1.20;;;23.50;80.20;;;;;;4956640;29;20031;-59
2021/05/08 01:10:46;;;;;;;2.00;1.15;;;23.40;80.70;;;;;;4956954;29;20023;-58
2021/05/08 01:13:13;;;;;;;3.45;1.25;;;23.30;80.40;;;;;;4956344;29;20039;-58
2021/05/08 01:15:41;;;;;;;1.80;1.08;;;23.50;81.80;;;;;;4954852;29;20049;-59
2021/05/08 01:18:09;;;;;;;1.58;1.25;;;23.50;82.40;;;;;;4956356;29;20026;-61
2021/05/08 01:20:36;;;;;;;1.48;0.95;;;23.30;82.80;;;;;;4956329;29;20027;-56
2021/05/08 01:23:04;;;;;;;3.42;1.25;;;23.40;82.10;;;;;;4955991;29;20027;-59
2021/05/08 01:25:31;;;;;;;2.25;1.15;;;23.20;83.10;;;;;;4956337;28;20062;-58
2021/05/08 01:28:01;;;;;;;2.08;1.17;;;23.30;81.60;;;;;;4956285;28;20490;-54
2021/05/08 01:30:33;;;;;;;1.80;1.08;;;23.40;82.20;;;;;;4956289;28;20024;-57
2021/05/08 01:33:01;;;;;;;1.75;1.20;;;23.40;81.20;;;;;;4956120;29;20035;-59
2021/05/08 01:35:30;;;;;;;1.92;1.48;;;23.40;81.80;;;;;;4956162;29;20132;-59
2021/05/08 01:37:59;;;;;;;2.03;0.90;;;23.30;82.20;;;;;;4956066;29;20371;-53
2021/05/08 01:40:29;;;;;;;1.50;1.00;;;23.30;80.10;;;;;;4956102;29;20051;-57
2021/05/08 01:42:57;;;;;;;3.47;1.17;;;23.40;81.30;;;;;;4955662;29;20032;-58
2021/05/08 01:45:26;;;;;;;2.40;1.23;;;23.40;80.20;;;;;;4939230;29;20035;-60
2021/05/08 01:47:53;;;;;;;6.53;1.27;;;23.20;83.50;;;;;;4955791;29;20161;-58
2021/05/08 01:50:26;;;;;;;1.50;0.95;;;23.20;83.50;;;;;;4956074;29;20027;-52
2021/05/08 01:52:54;;;;;;;1.65;0.82;;;23.10;83.90;;;;;;4955790;29;20039;-55
2021/05/08 01:55:26;;;;;;;1.95;1.10;;;23.20;85.00;;;;;;4953202;28;20091;-55
2021/05/08 01:57:59;;;;;;;1.73;1.00;;;23.20;84.20;;;;;;4955316;29;20051;-56
2021/05/08 02:00:41;;;;;;;1.58;0.90;;;23.20;84.40;;;;;;4955462;29;20027;-54
2021/05/08 02:03:10;;;;;;;1.02;0.82;;;23.30;83.20;;;;;;4955541;29;20051;-54
2021/05/08 02:05:38;;;;;;;3.00;1.33;;;23.30;83.60;;;;;;4954151;29;20047;-53
2021/05/08 02:08:09;;;;;;;3.03;1.40;;;23.40;81.30;;;;;;4955583;29;20389;-49
2021/05/08 02:10:37;;;;;;;1.42;0.98;;;23.40;82.20;;;;;;4955531;29;20037;-60
2021/05/08 02:13:07;;;;;;;4.55;2.22;;;23.40;83.70;;;;;;4955474;29;20027;-58
2021/05/08 02:15:35;;;;;;;1.63;0.77;;;23.50;80.70;;;;;;4954811;28;20035;-53
2021/05/08 02:18:04;;;;;;;1.67;1.30;;;23.50;83.40;;;;;;4955043;29;20027;-59
2021/05/08 02:20:37;;;;;;;2.28;0.90;;;23.50;82.30;;;;;;4955382;29;20027;-57
2021/05/08 02:23:07;;;;;;;1.77;0.95;;;23.70;79.90;;;;;;4954984;29;20086;-54
2021/05/08 02:25:34;;;;;;;1.90;0.95;;;23.60;82.00;;;;;;4955465;29;20027;-61
2021/05/08 02:28:02;;;;;;;1.02;0.90;;;23.70;82.90;;;;;;4954991;29;20026;-61
2021/05/08 02:30:31;;;;;;;1.30;0.80;;;23.70;82.70;;;;;;4955214;29;20027;-60
2021/05/08 02:33:00;;;;;;;2.65;1.02;;;23.80;77.60;;;;;;4952959;29;20035;-56
2021/05/08 02:35:28;;;;;;;2.63;1.45;;;23.90;81.30;;;;;;4955284;29;20094;-58
2021/05/08 02:37:56;;;;;;;3.70;1.00;;;23.90;78.10;;;;;;4953504;29;20027;-59
2021/05/08 02:40:29;;;;;;;2.30;1.23;;;24.10;80.40;;;;;;4954886;29;20095;-56
2021/05/08 02:42:57;;;;;;;2.55;1.20;;;24.20;80.20;;;;;;4954319;29;20055;-59
2021/05/08 02:45:25;;;;;;;2.05;0.80;;;24.10;80.20;;;;;;4954731;29;20027;-59
2021/05/08 02:47:53;;;;;;;1.55;0.80;;;24.10;80.60;;;;;;4955196;29;20031;-56
2021/05/08 02:50:21;;;;;;;2.83;1.05;;;24.30;79.90;;;;;;4954942;29;20429;-56
2021/05/08 02:52:49;;;;;;;1.40;0.82;;;24.00;81.40;;;;;;4955011;29;20019;-54
2021/05/08 02:55:17;;;;;;;2.47;1.15;;;24.10;81.10;;;;;;4947803;28;20098;-46
2021/05/08 02:57:45;;;;;;;1.92;1.00;;;23.90;81.60;;;;;;4952573;28;20050;-50
2021/05/08 03:00:17;;;;;;;1.77;0.90;;;23.90;82.30;;;;;;4955565;28;20050;-50
2021/05/08 03:02:45;;;;;;;2.38;1.13;;;23.90;82.90;;;;;;4948686;28;20093;-53
2021/05/08 03:05:14;;;;;;;1.45;0.85;;;24.00;82.70;;;;;;4952837;29;20078;-58
2021/05/08 03:07:41;;;;;;;3.08;1.00;;;24.00;83.00;;;;;;4961002;28;20027;-54
2021/05/08 03:10:10;;;;;;;5.22;0.73;;;24.30;81.10;;;;;;4950697;28;20115;-55
2021/05/08 03:12:38;;;;;;;3.05;1.42;;;24.20;82.20;;;;;;4957191;28;20034;-52
2021/05/08 03:15:06;;;;;;;2.05;1.00;;;24.20;81.30;;;;;;4952402;29;20048;-52
2021/05/08 03:17:34;;;;;;;1.58;0.80;;;24.20;81.00;;;;;;4962288;28;20138;-54
2021/05/08 03:20:02;;;;;;;2.90;1.20;;;24.20;78.30;;;;;;4950634;28;20374;-53
2021/05/08 03:22:29;;;;;;;2.97;1.23;;;24.20;80.60;;;;;;4955975;28;20055;-57
2021/05/08 03:24:56;;;;;;;3.13;1.00;;;24.30;80.20;;;;;;4952195;29;20051;-65
2021/05/08 03:27:24;;;;;;;3.05;0.98;;;24.10;78.50;;;;;;4952748;28;20493;-61
2021/05/08 03:29:51;;;;;;;4.47;1.02;;;24.10;82.30;;;;;;4954456;29;20029;-61
2021/05/08 03:32:19;;;;;;;2.40;0.98;;;24.30;77.40;;;;;;4954125;29;20035;-59
2021/05/08 03:34:46;;;;;;;1.75;0.98;;;24.40;80.80;;;;;;4937049;29;20553;-52
2021/05/08 03:37:13;;;;;;;1.77;0.93;;;24.40;80.00;;;;;;4936960;29;20046;-52
2021/05/08 03:39:41;;;;;;;2.40;0.90;;;24.70;80.00;;;;;;4954193;29;20031;-52
2021/05/08 03:42:08;;;;;;;2.03;0.95;;;24.70;78.90;;;;;;4954020;29;20466;-52
2021/05/08 03:44:35;;;;;;;1.45;1.05;;;24.80;79.40;;;;;;4954095;29;20027;-53
2021/05/08 03:47:03;;;;;;;2.08;1.23;;;24.80;78.90;;;;;;4953889;29;20038;-52
2021/05/08 03:49:34;;;;;;;1.75;0.95;;;25.00;78.70;;;;;;4953299;29;20027;-60
2021/05/08 03:52:04;;;;;;;2.45;1.30;;;25.20;77.30;;;;;;4954201;29;20036;-61
2021/05/08 03:54:32;;;;;;;2.10;1.05;;;25.40;77.40;;;;;;4953735;29;20126;-56
2021/05/08 03:57:00;;;;;;;0.95;0.68;;;25.50;76.20;;;;;;4953981;29;20454;-57
2021/05/08 03:59:28;;;;;;;1.38;0.88;;;25.60;76.00;;;;;;4953753;29;20350;-58
2021/05/08 04:01:56;;;;;;;5.43;1.50;;;25.70;75.80;;;;;;4946882;28;20883;-48
2021/05/08 04:04:23;;;;;;;4.63;3.65;;;25.90;68.40;;;;;;4953755;28;20474;-53
2021/05/08 04:06:50;;;;;;;1.98;1.10;;;26.10;68.60;;;;;;4939043;29;20039;-59
2021/05/08 04:09:18;;;;;;;4.97;4.53;;;26.20;66.10;;;;;;4954915;28;20151;-55
2021/05/08 04:11:46;;;;;;;4.32;2.30;;;26.30;68.80;;;;;;4938925;28;20022;-60
2021/05/08 04:14:13;;;;;;;5.65;3.20;;;26.30;66.30;;;;;;4955128;28;20042;-52
2021/05/08 04:16:41;;;;;;;4.90;4.30;;;26.40;68.70;;;;;;4952645;29;20031;-59
2021/05/08 04:19:09;;;;;;;4.32;2.88;;;26.20;68.70;;;;;;4951727;29;20348;-58
2021/05/08 04:21:37;;;;;;;7.10;6.40;;;26.10;64.40;;;;;;4949601;28;20023;-58
2021/05/08 04:24:05;;;;;;;7.18;5.80;;;26.00;68.00;;;;;;4954773;28;20028;-58
2021/05/08 04:26:32;;;;;;;7.18;4.65;;;26.00;64.00;;;;;;4960237;28;20470;-56
2021/05/08 04:29:00;;;;;;;7.07;3.28;;;26.00;64.50;;;;;;4960146;28;20031;-54
2021/05/08 04:31:27;;;;;;;9.98;4.75;;;25.90;62.80;;;;;;4947189;28;20019;-56
2021/05/08 04:33:55;;;;;;;8.50;7.57;;;25.90;62.70;;;;;;4961005;28;20441;-54
2021/05/08 04:36:22;;;;;;;8.02;5.57;;;25.90;64.50;;;;;;4958007;28;20098;-50
2021/05/08 04:38:50;;;;;;;7.75;5.32;;;25.70;62.70;;;;;;4957671;28;20032;-58
2021/05/08 04:41:17;;;;;;;10.75;5.95;;;25.70;64.80;;;;;;4956089;28;20058;-49
2021/05/08 04:43:45;;;;;;;10.43;8.77;;;25.60;62.50;;;;;;4959066;28;20528;-49
2021/05/08 04:46:12;;;;;;;9.60;5.75;;;25.50;67.10;;;;;;4963695;28;20114;-55
2021/05/08 04:48:40;;;;;;;10.80;7.18;;;25.60;65.90;;;;;;4960094;28;20048;-58
2021/05/08 04:51:07;;;;;;;10.40;9.27;;;25.50;66.30;;;;;;4936606;28;20045;-54
2021/05/08 04:53:35;;;;;;;7.00;5.40;;;25.50;67.40;;;;;;4962062;28;20042;-50
2021/05/08 04:56:03;;;;;;;7.75;7.05;;;25.50;65.40;;;;;;4960498;28;20035;-55
2021/05/08 04:58:30;;;;;;;12.52;5.28;;;25.50;67.00;;;;;;4959441;28;20032;-57
2021/05/08 05:00:57;;;;;;;11.27;4.20;;;25.50;63.50;;;;;;4947876;28;20035;-67
2021/05/08 05:03:25;;;;;;;9.75;5.18;;;25.50;64.20;;;;;;4952741;28;20082;-58
2021/05/08 05:05:52;;;;;;;9.77;4.57;;;25.70;67.60;;;;;;4955738;29;20046;-54
2021/05/08 05:08:21;;;;;;;7.30;3.15;;;25.60;66.80;;;;;;4941960;29;20415;-54
2021/05/08 05:10:52;;;;;;;5.72;3.30;;;25.60;64.70;;;;;;4950193;28;20429;-56
2021/05/08 05:13:24;;;;;;;4.35;3.25;;;25.60;66.10;;;;;;4951755;28;20166;-55
2021/05/08 05:15:52;;;;;;;5.05;3.22;;;25.60;69.90;;;;;;4953648;28;20038;-57
2021/05/08 05:18:19;;;;;;;5.57;2.60;;;25.50;65.00;;;;;;4953714;28;20035;-53
2021/05/08 05:20:47;;;;;;;8.63;3.13;;;25.50;67.00;;;;;;4954707;28;20382;-53
2021/05/08 05:23:15;;;;;;;6.65;2.10;;;25.50;67.60;;;;;;4959240;28;20075;-52
2021/05/08 05:25:43;;;;;;;8.52;2.55;;;25.50;65.80;;;;;;4959689;28;20028;-54
2021/05/08 05:28:27;;;;;;;7.60;1.70;;;25.50;64.70;;;;;;4963796;28;20392;-52
2021/05/08 05:30:55;;;;;;;9.40;3.00;;;25.40;67.30;;;;;;4952850;28;20112;-58
2021/05/08 05:33:23;;;;;;;6.95;2.30;;;25.40;68.30;;;;;;4955791;28;20067;-55
2021/05/08 05:35:53;;;;;;;18.40;12.30;;;25.30;69.00;;;;;;4962864;28;20039;-49
2021/05/08 05:38:22;;;;;;;4.15;3.28;;;25.30;64.80;;;;;;4958591;28;20111;-49
2021/05/08 05:40:53;;;;;;;5.72;3.55;;;25.40;65.70;;;;;;4951204;28;20043;-50
2021/05/08 05:43:21;;;;;;;5.25;2.50;;;25.40;66.10;;;;;;4956983;28;20053;-51
2021/05/08 05:45:48;;;;;;;5.43;3.00;;;25.40;62.50;;;;;;4957311;28;20394;-46
2021/05/08 05:48:16;;;;;;;7.90;3.22;;;25.60;64.20;;;;;;4953323;29;20074;-53
2021/05/08 05:50:44;;;;;;;5.72;3.20;;;25.60;63.40;;;;;;4954345;28;20062;-50
2021/05/08 05:53:12;;;;;;;8.90;3.00;;;25.70;64.30;;;;;;4960759;28;20166;-62
2021/05/08 05:55:40;;;;;;;7.53;2.55;;;25.80;62.80;;;;;;4955721;29;20050;-61
2021/05/08 05:58:08;;;;;;;8.63;2.13;;;25.90;62.00;;;;;;4953607;29;20086;-58
2021/05/08 06:00:35;;;;;;;14.10;4.10;;;26.00;60.70;;;;;;4954229;29;20032;-60
2021/05/08 06:03:03;;;;;;;5.20;2.60;;;26.10;61.80;;;;;;4934216;29;20051;-57
2021/05/08 06:05:30;;;;;;;7.82;5.22;;;26.10;62.40;;;;;;4955446;29;20027;-61
2021/05/08 06:07:57;;;;;;;3.20;2.38;;;26.10;61.50;;;;;;4955498;28;20512;-56
2021/05/08 06:10:25;;;;;;;6.57;2.47;;;26.00;61.50;;;;;;4954184;29;20392;-61
2021/05/08 06:12:52;;;;;;;14.93;4.60;;;25.90;62.50;;;;;;4954468;29;20034;-63
2021/05/08 06:15:19;;;;;;;4.57;2.95;;;25.80;62.50;;;;;;4955420;29;20384;-61
2021/05/08 06:17:47;;;;;;;9.18;2.35;;;25.70;61.10;;;;;;4955263;29;20019;-58
2021/05/08 06:20:15;;;;;;;4.70;3.42;;;25.70;60.90;;;;;;4955486;29;20109;-64
2021/05/08 06:22:42;;;;;;;8.00;3.45;;;25.60;60.70;;;;;;4955521;29;20023;-59
2021/05/08 06:25:10;;;;;;;3.03;2.10;;;25.50;57.90;;;;;;4954181;29;20382;-60
2021/05/08 06:27:37;;;;;;;5.13;2.38;;;25.50;57.50;;;;;;4955312;29;20481;-63
2021/05/08 06:30:05;;;;;;;7.47;2.72;;;25.40;57.50;;;;;;4955096;29;20374;-62
2021/05/08 06:32:33;;;;;;;6.90;2.10;;;25.40;55.80;;;;;;4969813;28;20481;-57
2021/05/08 06:35:00;;;;;;;5.10;2.05;;;25.30;56.30;;;;;;4954974;29;20397;-63
2021/05/08 06:37:27;;;;;;;4.68;2.20;;;25.20;55.90;;;;;;4955045;28;20110;-62
2021/05/08 06:39:56;;;;;;;9.38;2.80;;;25.20;55.90;;;;;;4954707;29;20038;-58
2021/05/08 06:42:23;;;;;;;15.27;1.77;;;25.10;56.50;;;;;;4955268;29;20031;-59
2021/05/08 06:44:53;;;;;;;9.27;1.98;;;25.10;58.10;;;;;;4955091;28;20365;-58
2021/05/08 06:47:21;;;;;;;7.13;2.20;;;25.00;57.10;;;;;;4954708;29;20058;-61
2021/05/08 06:49:49;;;;;;;20.23;2.30;;;24.90;59.80;;;;;;4955089;29;20023;-63
2021/05/08 06:52:17;;;;;;;5.97;1.70;;;24.90;60.40;;;;;;4953889;29;20066;-62
2021/05/08 06:54:44;;;;;;;2.28;1.08;;;24.80;59.40;;;;;;4954935;29;20043;-56
2021/05/08 06:57:11;;;;;;;19.73;2.15;;;24.70;56.20;;;;;;4960349;28;20501;-54
2021/05/08 06:59:39;;;;;;;6.07;1.40;;;24.60;57.00;;;;;;4955334;28;20035;-61
2021/05/08 07:02:07;;;;;;;5.85;1.40;;;24.60;56.90;;;;;;4954434;28;20039;-56
2021/05/08 07:04:34;;;;;;;5.43;1.42;;;24.50;57.10;;;;;;4954753;29;20043;-60
2021/05/08 07:07:02;;;;;;;11.45;1.63;;;24.40;57.80;;;;;;4954065;29;20030;-57
2021/05/08 07:09:29;;;;;;;8.13;1.85;;;24.40;59.60;;;;;;4954483;29;20159;-57
2021/05/08 07:11:56;;;;;;;3.42;1.25;;;24.40;60.10;;;;;;4954272;29;20034;-55
2021/05/08 07:14:24;;;;;;;8.05;1.83;;;24.40;58.30;;;;;;4954457;29;20031;-63
2021/05/08 07:16:51;;;;;;;13.63;1.98;;;24.30;62.30;;;;;;4954455;29;20023;-58
2021/05/08 07:19:18;;;;;;;3.28;1.17;;;24.20;63.20;;;;;;4954096;29;20386;-58
2021/05/08 07:21:46;;;;;;;5.50;1.48;;;24.20;59.10;;;;;;4952884;29;20023;-60
2021/05/08 07:24:13;;;;;;;9.57;1.50;;;24.20;60.50;;;;;;4954514;29;20019;-52
2021/05/08 07:26:41;;;;;;;9.88;2.05;;;24.20;65.10;;;;;;4954222;29;20035;-61
2021/05/08 07:29:08;;;;;;;5.35;1.65;;;24.10;62.20;;;;;;4953681;29;20034;-60
2021/05/08 07:31:35;;;;;;;6.97;1.27;;;24.10;57.90;;;;;;4953731;29;20046;-61
2021/05/08 07:34:03;;;;;;;6.30;1.77;;;24.00;61.80;;;;;;4953797;29;20043;-63
2021/05/08 07:36:31;;;;;;;7.57;2.03;;;24.00;63.80;;;;;;4954159;29;20375;-62
2021/05/08 07:38:59;;;;;;;10.80;2.13;;;24.00;65.80;;;;;;4953299;29;20112;-53
2021/05/08 07:41:26;;;;;;;13.38;2.28;;;23.90;64.30;;;;;;4953404;29;20059;-58
2021/05/08 07:43:54;;;;;;;7.95;3.50;;;23.90;66.20;;;;;;4953344;29;20042;-60
2021/05/08 07:46:21;;;;;;;6.18;1.60;;;23.90;56.60;;;;;;4936266;29;20031;-60
2021/05/08 07:48:49;;;;;;;11.20;2.47;;;23.80;67.80;;;;;;4953705;29;20422;-60
2021/05/08 07:51:16;;;;;;;17.55;2.97;;;23.70;65.00;;;;;;4953582;29;20032;-61
2021/05/08 07:53:44;;;;;;;7.97;2.72;;;23.70;65.20;;;;;;4954021;29;20074;-62
2021/05/08 07:56:11;;;;;;;12.75;4.88;;;23.70;64.00;;;;;;4953641;29;20101;-57
2021/05/08 07:58:39;;;;;;;6.90;2.63;;;23.70;56.80;;;;;;4953860;29;20382;-61
2021/05/08 08:01:06;;;;;;;8.30;3.50;;;23.60;64.00;;;;;;4953386;29;20465;-64
2021/05/08 08:03:33;;;;;;;16.05;3.42;;;23.60;62.80;;;;;;4946334;28;20048;-58
2021/05/08 08:06:01;;;;;;;7.25;3.38;;;23.60;66.10;;;;;;4956796;28;20054;-53
2021/05/08 08:08:29;;;;;;;11.82;3.90;;;23.50;66.90;;;;;;4954358;28;20019;-56
2021/05/08 08:10:57;;;;;;;12.35;3.25;;;23.60;68.50;;;;;;4952759;28;20027;-56
2021/05/08 08:13:25;;;;;;;7.05;2.85;;;23.50;69.80;;;;;;4955841;28;20023;-56
2021/05/08 08:15:52;;;;;;;10.80;2.92;;;23.40;71.20;;;;;;4961873;28;20039;-60
2021/05/08 08:18:20;;;;;;;11.10;2.50;;;23.40;71.20;;;;;;4950869;28;20050;-58
2021/05/08 08:20:47;;;;;;;17.95;2.83;;;23.30;73.30;;;;;;4955950;28;20038;-56
2021/05/08 08:23:15;;;;;;;9.68;3.42;;;23.30;74.20;;;;;;4951961;28;20031;-59
2021/05/08 08:25:43;;;;;;;12.35;2.80;;;23.20;72.90;;;;;;4939131;28;20378;-60
2021/05/08 08:28:10;;;;;;;6.63;2.15;;;23.10;74.20;;;;;;4950703;28;20150;-59
2021/05/08 08:30:37;;;;;;;11.13;2.13;;;23.10;75.80;;;;;;4958345;28;20033;-60
2021/05/08 08:33:05;;;;;;;6.97;2.15;;;23.10;75.50;;;;;;4956309;28;20070;-54
2021/05/08 08:35:32;;;;;;;12.27;2.78;;;23.10;75.00;;;;;;4956923;28;20118;-60
2021/05/08 08:38:00;;;;;;;9.73;2.78;;;23.00;74.90;;;;;;4950421;29;20035;-60
2021/05/08 08:40:28;;;;;;;6.72;2.33;;;23.00;74.30;;;;;;4954001;29;20031;-54
2021/05/08 08:42:56;;;;;;;6.90;2.42;;;23.00;76.10;;;;;;4956355;28;20113;-55
2021/05/08 08:45:25;;;;;;;4.55;2.47;;;23.00;75.40;;;;;;4957314;28;20026;-50
2021/05/08 08:47:54;;;;;;;6.50;2.67;;;23.00;73.40;;;;;;4947163;28;20023;-60
2021/05/08 08:50:21;;;;;;;9.63;3.05;;;22.90;75.90;;;;;;4950421;29;20036;-50
2021/05/08 08:52:49;;;;;;;5.30;2.83;;;22.90;73.70;;;;;;4957527;28;20031;-55
2021/05/08 08:55:16;;;;;;;8.05;2.55;;;22.90;76.30;;;;;;4955230;28;20055;-53
2021/05/08 08:57:45;;;;;;;6.10;2.17;;;22.80;73.50;;;;;;4948243;28;20019;-51
2021/05/08 09:00:15;;;;;;;7.32;3.10;;;22.80;78.10;;;;;;4950638;29;20038;-55
2021/05/08 09:02:49;;;;;;;8.75;2.60;;;22.70;74.80;;;;;;4953632;29;20063;-51
2021/05/08 09:05:19;;;;;;;6.97;2.90;;;22.70;74.50;;;;;;4955479;28;20031;-62
2021/05/08 09:07:49;;;;;;;12.00;2.90;;;22.70;76.50;;;;;;4951030;28;20043;-53
2021/05/08 09:10:30;;;;;;;8.98;2.53;;;22.70;75.50;;;;;;4951956;29;20031;-54
2021/05/08 09:13:00;;;;;;;13.65;3.38;;;22.70;74.30;;;;;;4957336;28;20540;-57
2021/05/08 09:15:42;;;;;;;5.75;3.50;;;22.60;76.80;;;;;;4940837;28;20053;-59
2021/05/08 09:18:32;;;;;;;5.47;3.85;;;22.50;72.50;;;;;;4949759;28;20046;-57
2021/05/08 09:20:59;;;;;;;5.70;4.55;;;22.60;71.90;;;;;;4952231;29;20078;-53
2021/05/08 09:23:47;;;;;;;7.82;4.90;;;22.50;79.10;;;;;;4950393;29;20469;-56
2021/05/08 09:26:14;;;;;;;10.98;5.43;;;22.50;78.30;;;;;;4951332;28;20026;-60
2021/05/08 09:28:52;;;;;;;6.60;4.97;;;22.50;79.70;;;;;;4958034;28;20089;-57
2021/05/08 09:31:20;;;;;;;10.90;5.40;;;22.40;77.90;;;;;;4953703;28;20032;-51
2021/05/08 09:33:57;;;;;;;8.68;5.75;;;22.40;80.00;;;;;;4954698;28;20063;-55
2021/05/08 09:36:24;;;;;;;10.30;5.70;;;22.40;73.60;;;;;;4954006;28;20064;-51
2021/05/08 09:38:51;;;;;;;6.65;5.95;;;22.30;77.20;;;;;;4952801;28;20019;-53
2021/05/08 09:41:19;;;;;;;8.70;6.65;;;22.30;75.30;;;;;;4956519;28;20106;-50
2021/05/08 09:43:47;;;;;;;6.13;5.53;;;22.30;80.50;;;;;;4953973;28;20042;-52
2021/05/08 09:46:29;;;;;;;7.85;5.70;;;22.30;80.70;;;;;;4960232;28;20032;-53
2021/05/08 09:49:16;;;;;;;8.93;6.35;;;22.30;80.80;;;;;;4950285;28;20039;-54
2021/05/08 09:51:44;;;;;;;17.13;7.43;;;22.30;78.50;;;;;;4954703;28;20445;-58
2021/05/08 09:54:18;;;;;;;11.43;6.82;;;22.20;73.60;;;;;;4957454;28;20114;-53
2021/05/08 09:56:50;;;;;;;11.05;7.72;;;22.20;75.70;;;;;;4953294;28;20106;-59
2021/05/08 09:59:37;;;;;;;8.82;7.38;;;22.20;79.70;;;;;;4950820;28;20037;-52
2021/05/08 10:02:05;;;;;;;11.13;6.65;;;22.20;78.60;;;;;;4956590;28;21551;-54
2021/05/08 10:04:45;;;;;;;8.25;7.25;;;22.20;74.70;;;;;;4954536;28;20043;-53
2021/05/08 10:07:16;;;;;;;8.52;7.70;;;22.20;78.10;;;;;;4951973;29;20027;-54
2021/05/08 10:09:48;;;;;;;8.27;7.47;;;22.10;80.00;;;;;;4954359;28;20093;-49
2021/05/08 10:12:17;;;;;;;8.65;7.38;;;22.10;81.10;;;;;;4950880;28;20030;-52
2021/05/08 10:14:47;;;;;;;8.50;7.20;;;22.10;79.00;;;;;;4955700;28;20121;-56
2021/05/08 10:17:16;;;;;;;10.95;7.50;;;22.10;81.90;;;;;;4935933;29;20043;-51
2021/05/08 10:19:46;;;;;;;9.40;7.82;;;22.10;80.90;;;;;;4950180;28;20031;-52
2021/05/08 10:22:14;;;;;;;8.85;7.50;;;22.00;80.70;;;;;;4958869;28;20019;-55
2021/05/08 10:24:44;;;;;;;10.60;7.63;;;22.00;79.50;;;;;;4953423;28;20027;-53
2021/05/08 10:27:12;;;;;;;9.02;7.38;;;22.00;81.70;;;;;;4952423;29;20031;-57
2021/05/08 10:29:49;;;;;;;9.98;7.20;;;22.00;82.20;;;;;;4955729;29;20031;-56
2021/05/08 10:32:19;;;;;;;12.40;7.47;;;22.00;82.30;;;;;;4955585;29;20038;-59
2021/05/08 10:35:02;;;;;;;8.73;7.75;;;22.00;82.90;;;;;;4955410;29;20035;-60
2021/05/08 10:37:30;;;;;;;9.57;6.93;;;22.00;81.80;;;;;;4946703;28;20355;-57
2021/05/08 10:40:00;;;;;;;9.05;6.97;;;21.90;81.70;;;;;;4954013;28;20041;-55
2021/05/08 10:42:32;;;;;;;9.13;7.38;;;21.90;82.10;;;;;;4959958;28;20038;-51
2021/05/08 10:45:00;;;;;;;8.20;6.78;;;21.90;81.50;;;;;;4953019;28;20114;-54
2021/05/08 10:50:38;;;;;;;7.32;6.35;;;21.80;82.40;;;;;;4957537;28;20101;-58
2021/05/08 10:53:06;;;;;;;8.05;6.30;;;21.80;82.90;;;;;;4958604;28;20066;-53
2021/05/08 10:55:58;;;;;;;8.05;7.20;;;21.80;82.60;;;;;;4957275;28;20031;-55
2021/05/08 10:58:26;;;;;;;9.40;6.05;;;21.80;82.80;;;;;;4950056;28;20035;-50
2021/05/08 11:00:56;;;;;;;12.80;6.55;;;21.70;80.90;;;;;;4958630;28;20038;-52
2021/05/08 11:03:32;;;;;;;7.03;5.80;;;21.70;80.90;;;;;;4959294;28;20047;-51
2021/05/08 11:06:02;;;;;;;7.72;6.07;;;21.70;80.40;;;;;;4949802;28;20031;-55
2021/05/08 11:08:30;;;;;;;6.80;5.50;;;21.70;81.60;;;;;;4952807;28;20035;-49
2021/05/08 11:11:02;;;;;;;7.13;6.28;;;21.70;81.20;;;;;;4958926;28;20489;-56
2021/05/08 11:13:54;;;;;;;10.57;6.35;;;21.70;82.50;;;;;;4961182;28;20039;-55
2021/05/08 11:16:26;;;;;;;7.78;6.32;;;21.70;83.10;;;;;;4955690;28;20181;-57
2021/05/08 11:18:59;;;;;;;;;;;21.70;83.20;;;;;;4957213;28;20051;-53
2021/05/08 11:21:28;;;;;;;6.88;6.18;;;21.70;83.50;;;;;;4952289;28;19984;-57
2021/05/08 11:24:01;;;;;;;7.20;6.07;;;21.70;83.10;;;;;;4954228;28;20079;-56
2021/05/08 11:26:29;;;;;;;7.93;6.03;;;21.60;83.70;;;;;;4949340;28;20034;-60
2021/05/08 11:29:19;;;;;;;9.38;6.07;;;21.60;83.90;;;;;;4949385;28;20132;-53
2021/05/08 11:31:47;;;;;;;6.88;5.78;;;21.60;83.60;;;;;;4954589;28;20110;-52
2021/05/08 11:34:26;;;;;;;7.15;5.95;;;21.60;84.00;;;;;;4962039;28;20038;-50
2021/05/08 11:37:12;;;;;;;6.32;5.60;;;21.60;83.70;;;;;;4953590;28;20065;-59
2021/05/08 11:39:44;;;;;;;5.85;5.13;;;21.60;83.50;;;;;;4951641;28;20023;-48
2021/05/08 11:42:12;;;;;;;;;;;21.60;82.80;;;;;;4961757;28;20553;-55
2021/05/08 11:44:45;;;;;;;7.32;5.97;;;21.60;83.10;;;;;;4959634;28;20439;-54
2021/05/08 11:47:32;;;;;;;6.28;5.60;;;21.60;81.90;;;;;;4954785;28;20034;-58
2021/05/08 11:50:02;;;;;;;7.05;5.38;;;21.60;84.00;;;;;;4949546;28;20031;-57
2021/05/08 11:52:33;;;;;;;6.38;5.72;;;21.60;83.90;;;;;;4958498;28;20050;-48
2021/05/08 11:55:01;;;;;;;7.10;5.53;;;21.60;84.20;;;;;;4957314;28;20086;-60
2021/05/08 11:57:29;;;;;;;7.20;5.20;;;21.60;84.60;;;;;;4952385;28;20028;-50
2021/05/08 11:59:56;;;;;;;6.28;5.25;;;21.60;84.00;;;;;;4950691;28;20031;-55
2021/05/08 12:02:25;;;;;;;5.80;5.20;;;21.60;84.30;;;;;;4958680;28;20159;-55
2021/05/08 12:04:56;;;;;;;6.10;5.28;;;21.60;83.40;;;;;;4953583;28;20027;-60
2021/05/08 12:07:32;;;;;;;6.50;5.28;;;21.50;84.40;;;;;;4954189;29;20107;-51
2021/05/08 12:10:20;;;;;;;8.07;5.45;;;21.50;84.30;;;;;;4954454;29;20034;-55
2021/05/08 12:12:55;;;;;;;6.50;5.75;;;21.50;84.40;;;;;;4954360;29;20035;-53
2021/05/08 12:15:33;;;;;;;6.97;5.20;;;21.50;83.40;;;;;;4954154;29;20071;-57
2021/05/08 12:18:05;;;;;;;5.70;5.10;;;21.50;84.50;;;;;;4954512;29;20055;-56
2021/05/08 12:20:51;;;;;;;6.55;5.63;;;21.40;84.60;;;;;;4954378;29;20430;-58
2021/05/08 12:23:20;;;;;;;5.53;4.85;;;21.50;84.50;;;;;;4953988;29;20035;-58
2021/05/08 12:26:15;;;;;;;6.72;5.05;;;21.40;84.70;;;;;;4953970;29;20024;-59
2021/05/08 12:28:45;;;;;;;8.27;5.57;;;21.40;84.40;;;;;;4936111;29;20024;-57
2021/05/08 12:31:33;;;;;;;7.32;5.25;;;21.40;85.20;;;;;;4953435;29;20024;-56
2021/05/08 12:34:12;;;;;;;8.60;5.40;;;21.30;84.40;;;;;;4953942;29;20091;-59
2021/05/08 12:36:42;;;;;;;6.13;5.30;;;21.30;84.10;;;;;;4953220;29;20486;-58
2021/05/08 12:39:23;;;;;;;9.05;6.38;;;21.30;84.50;;;;;;4952675;29;20086;-53
2021/05/08 12:42:05;;;;;;;6.63;5.90;;;21.30;84.40;;;;;;4953783;29;20034;-55
2021/05/08 12:44:50;;;;;;;7.22;5.40;;;21.30;84.40;;;;;;4953690;29;20023;-58
2021/05/08 12:47:19;;;;;;;6.55;5.18;;;21.20;85.00;;;;;;4953858;29;20171;-61
2021/05/08 12:50:04;;;;;;;7.15;5.63;;;21.20;84.80;;;;;;4953721;29;20615;-56
2021/05/08 12:52:32;;;;;;;6.38;5.07;;;21.20;85.30;;;;;;4953818;29;20390;-60
2021/05/08 12:55:00;;;;;;;7.53;5.40;;;21.10;85.40;;;;;;4946819;28;20465;-55
2021/05/08 12:57:33;;;;;;;6.53;5.20;;;21.10;85.30;;;;;;4957930;28;20031;-54
2021/05/08 13:00:13;;;;;;;7.28;5.20;;;21.10;85.00;;;;;;4952950;28;20051;-57
2021/05/08 13:02:41;;;;;;;6.60;5.22;;;21.10;85.10;;;;;;4957065;29;20054;-57